sensor_id;sensor_type;location;lat;lon;timestamp;temperature;humidity
51801;DHT22;37855;53.204;6.568;2022-09-16T00:01:16;12.40;99.90
51801;DHT22;37855;53.204;6.568;2022-09-16T00:03:42;12.40;99.90
51801;DHT22;37855;53.204;6.568;2022-09-16T00:06:28;12.40;99.90
51801;DHT22;37855;53.204;6.568;2022-09-16T00:08:55;12.40;99.90
51801;DHT22;37855;53.204;6.568;2022-09-16T00:11:22;12.40;99.90
51801;DHT22;37855;53.204;6.568;2022-09-16T00:13:48;12.40;99.90
51801;DHT22;37855;53.204;6.568;2022-09-16T00:16:23;12.40;99.90
51801;DHT22;37855;53.204;6.568;2022-09-16T00:18:53;12.40;99.90
51801;DHT22;37855;53.204;6.568;2022-09-16T00:21:19;12.30;99.90
51801;DHT22;37855;53.204;6.568;2022-09-16T00:23:45;12.30;99.90
51801;DHT22;37855;53.204;6.568;2022-09-16T00:26:10;12.30;99.90
51801;DHT22;37855;53.204;6.568;2022-09-16T00:28:36;12.20;99.90
51801;DHT22;37855;53.204;6.568;2022-09-16T00:31:02;12.20;99.90
51801;DHT22;37855;53.204;6.568;2022-09-16T00:33:27;12.20;99.90
51801;DHT22;37855;53.204;6.568;2022-09-16T00:36:14;12.20;99.90
51801;DHT22;37855;53.204;6.568;2022-09-16T00:38:41;12.20;99.90
51801;DHT22;37855;53.204;6.568;2022-09-16T00:41:09;12.20;99.90
51801;DHT22;37855;53.204;6.568;2022-09-16T00:43:55;12.20;99.90
51801;DHT22;37855;53.204;6.568;2022-09-16T00:46:33;12.20;99.90
51801;DHT22;37855;53.204;6.568;2022-09-16T00:49:03;12.20;99.90
51801;DHT22;37855;53.204;6.568;2022-09-16T00:51:30;12.20;99.90
51801;DHT22;37855;53.204;6.568;2022-09-16T00:54:01;12.20;99.90
51801;DHT22;37855;53.204;6.568;2022-09-16T00:56:30;12.20;99.90
51801;DHT22;37855;53.204;6.568;2022-09-16T00:59:20;12.20;99.90
51801;DHT22;37855;53.204;6.568;2022-09-16T01:01:47;12.20;99.90
51801;DHT22;37855;53.204;6.568;2022-09-16T01:04:22;12.20;99.90
51801;DHT22;37855;53.204;6.568;2022-09-16T01:06:49;12.20;99.90
51801;DHT22;37855;53.204;6.568;2022-09-16T01:09:16;12.10;99.90
51801;DHT22;37855;53.204;6.568;2022-09-16T01:11:43;12.10;99.90
51801;DHT22;37855;53.204;6.568;2022-09-16T01:14:09;12.10;99.90
51801;DHT22;37855;53.204;6.568;2022-09-16T01:17:05;12.20;99.90
51801;DHT22;37855;53.204;6.568;2022-09-16T01:19:49;12.10;99.90
51801;DHT22;37855;53.204;6.568;2022-09-16T01:24:52;12.10;99.90
51801;DHT22;37855;53.204;6.568;2022-09-16T01:33:03;12.10;99.90
51801;DHT22;37855;53.204;6.568;2022-09-16T01:36:05;12.00;99.90
51801;DHT22;37855;53.204;6.568;2022-09-16T01:41:19;12.00;99.90
51801;DHT22;37855;53.204;6.568;2022-09-16T01:46:45;12.10;99.90
51801;DHT22;37855;53.204;6.568;2022-09-16T01:49:34;12.10;99.90
51801;DHT22;37855;53.204;6.568;2022-09-16T01:52:17;12.10;99.90
51801;DHT22;37855;53.204;6.568;2022-09-16T01:57:15;12.10;99.90
51801;DHT22;37855;53.204;6.568;2022-09-16T01:59:53;12.10;99.90
51801;DHT22;37855;53.204;6.568;2022-09-16T02:02:28;12.10;99.90
51801;DHT22;37855;53.204;6.568;2022-09-16T02:04:58;12.10;99.90
51801;DHT22;37855;53.204;6.568;2022-09-16T02:07:31;12.10;99.90
51801;DHT22;37855;53.204;6.568;2022-09-16T02:10:02;12.10;99.90
51801;DHT22;37855;53.204;6.568;2022-09-16T02:12:33;12.10;99.90
51801;DHT22;37855;53.204;6.568;2022-09-16T02:15:04;12.10;99.90
51801;DHT22;37855;53.204;6.568;2022-09-16T02:17:33;12.10;99.90
51801;DHT22;37855;53.204;6.568;2022-09-16T02:20:16;12.10;99.90
51801;DHT22;37855;53.204;6.568;2022-09-16T02:22:47;12.10;99.90
51801;DHT22;37855;53.204;6.568;2022-09-16T02:25:15;12.00;99.90
51801;DHT22;37855;53.204;6.568;2022-09-16T02:27:44;12.00;99.90
51801;DHT22;37855;53.204;6.568;2022-09-16T02:30:15;12.00;99.90
51801;DHT22;37855;53.204;6.568;2022-09-16T02:32:47;11.90;99.90
51801;DHT22;37855;53.204;6.568;2022-09-16T02:35:16;11.90;99.90
51801;DHT22;37855;53.204;6.568;2022-09-16T02:37:56;11.90;99.90
51801;DHT22;37855;53.204;6.568;2022-09-16T02:42:56;11.90;99.90
51801;DHT22;37855;53.204;6.568;2022-09-16T02:45:25;11.90;99.90
51801;DHT22;37855;53.204;6.568;2022-09-16T02:48:26;11.90;99.90
51801;DHT22;37855;53.204;6.568;2022-09-16T02:50:56;11.90;99.90
51801;DHT22;37855;53.204;6.568;2022-09-16T02:56:22;11.80;99.90
51801;DHT22;37855;53.204;6.568;2022-09-16T02:58:49;11.80;99.90
51801;DHT22;37855;53.204;6.568;2022-09-16T03:01:15;11.80;99.90
51801;DHT22;37855;53.204;6.568;2022-09-16T03:03:42;11.80;99.90
51801;DHT22;37855;53.204;6.568;2022-09-16T03:08:35;11.80;99.90
51801;DHT22;37855;53.204;6.568;2022-09-16T03:13:52;11.90;99.90
51801;DHT22;37855;53.204;6.568;2022-09-16T03:16:30;11.90;99.90
51801;DHT22;37855;53.204;6.568;2022-09-16T03:21:55;11.90;99.90
51801;DHT22;37855;53.204;6.568;2022-09-16T03:24:34;11.90;99.90
51801;DHT22;37855;53.204;6.568;2022-09-16T03:27:13;11.90;99.90
51801;DHT22;37855;53.204;6.568;2022-09-16T03:30:02;11.90;99.90
51801;DHT22;37855;53.204;6.568;2022-09-16T03:32:34;11.90;99.90
51801;DHT22;37855;53.204;6.568;2022-09-16T03:35:18;11.80;99.90
51801;DHT22;37855;53.204;6.568;2022-09-16T03:37:46;11.80;99.90
51801;DHT22;37855;53.204;6.568;2022-09-16T03:40:15;11.80;99.90
51801;DHT22;37855;53.204;6.568;2022-09-16T03:42:43;11.80;99.90
51801;DHT22;37855;53.204;6.568;2022-09-16T03:45:14;11.80;99.90
51801;DHT22;37855;53.204;6.568;2022-09-16T03:47:41;11.80;99.90
51801;DHT22;37855;53.204;6.568;2022-09-16T03:50:07;11.70;99.90
51801;DHT22;37855;53.204;6.568;2022-09-16T03:52:33;11.70;99.90
51801;DHT22;37855;53.204;6.568;2022-09-16T03:54:58;11.70;99.90
51801;DHT22;37855;53.204;6.568;2022-09-16T03:57:24;11.70;99.90
51801;DHT22;37855;53.204;6.568;2022-09-16T03:59:50;11.70;99.90
51801;DHT22;37855;53.204;6.568;2022-09-16T04:02:15;11.70;99.90
51801;DHT22;37855;53.204;6.568;2022-09-16T04:04:41;11.70;99.90
51801;DHT22;37855;53.204;6.568;2022-09-16T04:07:07;11.60;99.90
51801;DHT22;37855;53.204;6.568;2022-09-16T04:09:33;11.60;99.90
51801;DHT22;37855;53.204;6.568;2022-09-16T04:11:58;11.60;99.90
51801;DHT22;37855;53.204;6.568;2022-09-16T04:14:24;11.60;99.90
51801;DHT22;37855;53.204;6.568;2022-09-16T04:16:50;11.60;99.90
51801;DHT22;37855;53.204;6.568;2022-09-16T04:19:15;11.60;99.90
51801;DHT22;37855;53.204;6.568;2022-09-16T04:21:41;11.60;99.90
51801;DHT22;37855;53.204;6.568;2022-09-16T04:24:08;11.60;99.90
51801;DHT22;37855;53.204;6.568;2022-09-16T04:26:34;11.50;99.90
51801;DHT22;37855;53.204;6.568;2022-09-16T04:29:00;11.40;99.90
51801;DHT22;37855;53.204;6.568;2022-09-16T04:31:25;11.40;99.90
51801;DHT22;37855;53.204;6.568;2022-09-16T04:33:51;11.40;99.90
51801;DHT22;37855;53.204;6.568;2022-09-16T04:36:18;11.40;99.90
51801;DHT22;37855;53.204;6.568;2022-09-16T04:38:45;11.40;99.90
51801;DHT22;37855;53.204;6.568;2022-09-16T04:41:12;11.50;99.90
51801;DHT22;37855;53.204;6.568;2022-09-16T04:43:39;11.40;99.90
51801;DHT22;37855;53.204;6.568;2022-09-16T04:46:05;11.40;99.90
51801;DHT22;37855;53.204;6.568;2022-09-16T04:48:31;11.40;99.90
51801;DHT22;37855;53.204;6.568;2022-09-16T04:51:09;11.40;99.90
51801;DHT22;37855;53.204;6.568;2022-09-16T04:53:36;11.50;99.90
51801;DHT22;37855;53.204;6.568;2022-09-16T04:56:07;11.40;99.90
51801;DHT22;37855;53.204;6.568;2022-09-16T04:58:34;11.50;99.90
51801;DHT22;37855;53.204;6.568;2022-09-16T05:01:14;11.50;99.90
51801;DHT22;37855;53.204;6.568;2022-09-16T05:03:42;11.50;99.90
51801;DHT22;37855;53.204;6.568;2022-09-16T05:06:22;11.40;99.90
51801;DHT22;37855;53.204;6.568;2022-09-16T05:08:49;11.50;99.90
51801;DHT22;37855;53.204;6.568;2022-09-16T05:11:27;11.50;99.90
51801;DHT22;37855;53.204;6.568;2022-09-16T05:13:56;11.50;99.90
51801;DHT22;37855;53.204;6.568;2022-09-16T05:16:23;11.50;99.90
51801;DHT22;37855;53.204;6.568;2022-09-16T05:18:52;11.50;99.90
51801;DHT22;37855;53.204;6.568;2022-09-16T05:21:20;11.50;99.90
51801;DHT22;37855;53.204;6.568;2022-09-16T05:23:47;11.50;99.90
51801;DHT22;37855;53.204;6.568;2022-09-16T05:26:18;11.60;99.90
51801;DHT22;37855;53.204;6.568;2022-09-16T05:28:45;11.50;99.90
51801;DHT22;37855;53.204;6.568;2022-09-16T05:31:16;11.50;99.90
51801;DHT22;37855;53.204;6.568;2022-09-16T05:33:44;11.50;99.90
51801;DHT22;37855;53.204;6.568;2022-09-16T05:36:15;11.50;99.90
51801;DHT22;37855;53.204;6.568;2022-09-16T05:38:41;11.50;99.90
51801;DHT22;37855;53.204;6.568;2022-09-16T05:41:10;11.50;99.90
51801;DHT22;37855;53.204;6.568;2022-09-16T05:43:37;11.50;99.90
51801;DHT22;37855;53.204;6.568;2022-09-16T05:46:04;11.50;99.90
51801;DHT22;37855;53.204;6.568;2022-09-16T05:48:30;11.50;99.90
51801;DHT22;37855;53.204;6.568;2022-09-16T05:50:59;11.50;99.90
51801;DHT22;37855;53.204;6.568;2022-09-16T05:53:28;11.50;99.90
51801;DHT22;37855;53.204;6.568;2022-09-16T05:58:26;11.50;99.90
51801;DHT22;37855;53.204;6.568;2022-09-16T06:01:00;11.50;99.90
51801;DHT22;37855;53.204;6.568;2022-09-16T06:03:29;11.60;99.90
51801;DHT22;37855;53.204;6.568;2022-09-16T06:06:33;11.50;99.90
51801;DHT22;37855;53.204;6.568;2022-09-16T06:08:53;11.60;99.90
51801;DHT22;37855;53.204;6.568;2022-09-16T06:11:19;11.60;99.90
51801;DHT22;37855;53.204;6.568;2022-09-16T06:13:45;11.60;99.90
51801;DHT22;37855;53.204;6.568;2022-09-16T06:16:11;11.60;99.90
51801;DHT22;37855;53.204;6.568;2022-09-16T06:18:39;11.70;99.90
51801;DHT22;37855;53.204;6.568;2022-09-16T06:21:08;11.70;99.90
51801;DHT22;37855;53.204;6.568;2022-09-16T06:23:35;11.70;99.90
51801;DHT22;37855;53.204;6.568;2022-09-16T06:26:03;11.60;99.90
51801;DHT22;37855;53.204;6.568;2022-09-16T06:28:30;11.70;99.90
51801;DHT22;37855;53.204;6.568;2022-09-16T06:31:11;11.60;99.90
51801;DHT22;37855;53.204;6.568;2022-09-16T06:33:37;11.70;99.90
51801;DHT22;37855;53.204;6.568;2022-09-16T06:38:29;11.80;99.90
51801;DHT22;37855;53.204;6.568;2022-09-16T06:41:03;11.80;99.90
51801;DHT22;37855;53.204;6.568;2022-09-16T06:43:30;11.90;99.90
51801;DHT22;37855;53.204;6.568;2022-09-16T06:46:00;11.90;99.90
51801;DHT22;37855;53.204;6.568;2022-09-16T06:48:26;11.90;99.90
51801;DHT22;37855;53.204;6.568;2022-09-16T06:51:00;12.00;99.90
51801;DHT22;37855;53.204;6.568;2022-09-16T06:53:26;12.00;99.90
51801;DHT22;37855;53.204;6.568;2022-09-16T06:55:52;12.00;99.90
51801;DHT22;37855;53.204;6.568;2022-09-16T06:58:18;12.10;99.90
51801;DHT22;37855;53.204;6.568;2022-09-16T07:00:43;12.20;99.90
51801;DHT22;37855;53.204;6.568;2022-09-16T07:03:09;12.20;99.90
51801;DHT22;37855;53.204;6.568;2022-09-16T07:05:34;12.30;99.90
51801;DHT22;37855;53.204;6.568;2022-09-16T07:08:00;12.40;99.90
51801;DHT22;37855;53.204;6.568;2022-09-16T07:10:26;12.50;99.90
51801;DHT22;37855;53.204;6.568;2022-09-16T07:12:51;12.60;99.90
51801;DHT22;37855;53.204;6.568;2022-09-16T07:15:17;12.60;99.90
51801;DHT22;37855;53.204;6.568;2022-09-16T07:17:43;12.60;99.90
51801;DHT22;37855;53.204;6.568;2022-09-16T07:20:09;12.70;99.90
51801;DHT22;37855;53.204;6.568;2022-09-16T07:22:34;12.70;99.90
51801;DHT22;37855;53.204;6.568;2022-09-16T07:25:00;12.70;99.90
51801;DHT22;37855;53.204;6.568;2022-09-16T07:27:25;12.70;99.90
51801;DHT22;37855;53.204;6.568;2022-09-16T07:29:51;12.70;99.90
51801;DHT22;37855;53.204;6.568;2022-09-16T07:32:19;12.70;99.90
51801;DHT22;37855;53.204;6.568;2022-09-16T07:34:44;12.80;99.90
51801;DHT22;37855;53.204;6.568;2022-09-16T07:37:10;12.80;99.90
51801;DHT22;37855;53.204;6.568;2022-09-16T07:39:37;12.80;99.90
51801;DHT22;37855;53.204;6.568;2022-09-16T07:42:02;13.00;99.90
51801;DHT22;37855;53.204;6.568;2022-09-16T07:44:28;13.10;99.90
51801;DHT22;37855;53.204;6.568;2022-09-16T07:46:54;13.20;99.90
51801;DHT22;37855;53.204;6.568;2022-09-16T07:49:19;13.30;99.90
51801;DHT22;37855;53.204;6.568;2022-09-16T07:51:45;13.40;99.90
51801;DHT22;37855;53.204;6.568;2022-09-16T07:54:15;13.60;99.90
51801;DHT22;37855;53.204;6.568;2022-09-16T07:56:42;13.70;99.90
51801;DHT22;37855;53.204;6.568;2022-09-16T07:59:12;13.70;99.90
51801;DHT22;37855;53.204;6.568;2022-09-16T08:01:38;13.80;99.90
51801;DHT22;37855;53.204;6.568;2022-09-16T08:04:04;13.80;99.90
51801;DHT22;37855;53.204;6.568;2022-09-16T08:06:32;13.80;99.90
51801;DHT22;37855;53.204;6.568;2022-09-16T08:08:59;13.70;99.90
51801;DHT22;37855;53.204;6.568;2022-09-16T08:11:26;13.70;99.90
51801;DHT22;37855;53.204;6.568;2022-09-16T08:13:52;13.80;99.90
51801;DHT22;37855;53.204;6.568;2022-09-16T08:16:20;13.80;99.90
51801;DHT22;37855;53.204;6.568;2022-09-16T08:18:48;13.80;99.90
51801;DHT22;37855;53.204;6.568;2022-09-16T08:21:19;13.80;99.90
51801;DHT22;37855;53.204;6.568;2022-09-16T08:23:46;13.90;99.90
51801;DHT22;37855;53.204;6.568;2022-09-16T08:26:13;14.00;99.90
51801;DHT22;37855;53.204;6.568;2022-09-16T08:28:40;14.00;99.90
51801;DHT22;37855;53.204;6.568;2022-09-16T08:31:07;14.00;99.90
51801;DHT22;37855;53.204;6.568;2022-09-16T08:33:33;14.10;99.90
51801;DHT22;37855;53.204;6.568;2022-09-16T08:36:09;14.20;99.90
51801;DHT22;37855;53.204;6.568;2022-09-16T08:38:35;14.30;99.30
51801;DHT22;37855;53.204;6.568;2022-09-16T08:43:41;14.50;92.30
51801;DHT22;37855;53.204;6.568;2022-09-16T08:49:19;14.70;92.80
51801;DHT22;37855;53.204;6.568;2022-09-16T08:51:47;14.70;91.40
51801;DHT22;37855;53.204;6.568;2022-09-16T08:54:38;14.80;90.70
51801;DHT22;37855;53.204;6.568;2022-09-16T08:57:10;14.90;85.80
51801;DHT22;37855;53.204;6.568;2022-09-16T08:59:40;14.90;83.80
51801;DHT22;37855;53.204;6.568;2022-09-16T09:02:27;14.90;83.60
51801;DHT22;37855;53.204;6.568;2022-09-16T09:04:56;15.10;85.20
51801;DHT22;37855;53.204;6.568;2022-09-16T09:07:41;15.10;85.00
51801;DHT22;37855;53.204;6.568;2022-09-16T09:16:20;14.90;88.50
51801;DHT22;37855;53.204;6.568;2022-09-16T09:24:51;15.00;90.10
51801;DHT22;37855;53.204;6.568;2022-09-16T09:27:25;15.00;90.40
51801;DHT22;37855;53.204;6.568;2022-09-16T09:30:38;15.00;89.20
51801;DHT22;37855;53.204;6.568;2022-09-16T09:36:20;15.00;88.60
51801;DHT22;37855;53.204;6.568;2022-09-16T09:41:37;15.10;77.60
51801;DHT22;37855;53.204;6.568;2022-09-16T09:46:59;15.20;78.90
51801;DHT22;37855;53.204;6.568;2022-09-16T09:49:32;15.30;79.50
51801;DHT22;37855;53.204;6.568;2022-09-16T09:52:04;15.40;80.10
51801;DHT22;37855;53.204;6.568;2022-09-16T09:54:36;15.30;81.50
51801;DHT22;37855;53.204;6.568;2022-09-16T09:57:30;15.40;85.80
51801;DHT22;37855;53.204;6.568;2022-09-16T10:02:41;15.30;90.10
51801;DHT22;37855;53.204;6.568;2022-09-16T10:05:25;15.40;90.20
51801;DHT22;37855;53.204;6.568;2022-09-16T10:08:01;15.30;92.80
51801;DHT22;37855;53.204;6.568;2022-09-16T10:10:31;15.10;93.50
51801;DHT22;37855;53.204;6.568;2022-09-16T10:13:08;15.00;93.70
51801;DHT22;37855;53.204;6.568;2022-09-16T10:15:34;14.90;94.40
51801;DHT22;37855;53.204;6.568;2022-09-16T10:18:01;14.80;94.90
51801;DHT22;37855;53.204;6.568;2022-09-16T10:20:38;14.60;95.20
51801;DHT22;37855;53.204;6.568;2022-09-16T10:23:13;14.80;93.90
51801;DHT22;37855;53.204;6.568;2022-09-16T10:25:40;14.90;94.00
51801;DHT22;37855;53.204;6.568;2022-09-16T10:28:25;15.00;92.30
51801;DHT22;37855;53.204;6.568;2022-09-16T10:30:56;15.00;91.40
51801;DHT22;37855;53.204;6.568;2022-09-16T10:33:40;15.00;91.20
51801;DHT22;37855;53.204;6.568;2022-09-16T10:36:17;14.90;92.70
51801;DHT22;37855;53.204;6.568;2022-09-16T10:38:52;14.70;92.80
51801;DHT22;37855;53.204;6.568;2022-09-16T10:41:23;14.50;94.10
51801;DHT22;37855;53.204;6.568;2022-09-16T10:43:53;14.50;94.00
51801;DHT22;37855;53.204;6.568;2022-09-16T10:49:11;14.80;97.70
51801;DHT22;37855;53.204;6.568;2022-09-16T10:51:37;14.70;94.30
51801;DHT22;37855;53.204;6.568;2022-09-16T10:54:04;14.90;92.30
51801;DHT22;37855;53.204;6.568;2022-09-16T10:56:45;15.00;86.50
51801;DHT22;37855;53.204;6.568;2022-09-16T10:59:14;15.10;80.70
51801;DHT22;37855;53.204;6.568;2022-09-16T11:04:59;15.30;82.40
51801;DHT22;37855;53.204;6.568;2022-09-16T11:29:55;15.80;72.20
51801;DHT22;37855;53.204;6.568;2022-09-16T11:37:54;15.90;69.50
51801;DHT22;37855;53.204;6.568;2022-09-16T11:48:38;16.20;73.00
51801;DHT22;37855;53.204;6.568;2022-09-16T11:54:06;16.30;73.40
51801;DHT22;37855;53.204;6.568;2022-09-16T11:56:48;16.30;72.30
51801;DHT22;37855;53.204;6.568;2022-09-16T12:00:17;16.20;73.10
51801;DHT22;37855;53.204;6.568;2022-09-16T12:02:25;16.30;72.80
51801;DHT22;37855;53.204;6.568;2022-09-16T12:07:33;16.20;70.10
51801;DHT22;37855;53.204;6.568;2022-09-16T12:13:09;16.10;70.30
51801;DHT22;37855;53.204;6.568;2022-09-16T12:15:46;16.10;71.30
51801;DHT22;37855;53.204;6.568;2022-09-16T12:18:33;16.10;72.70
51801;DHT22;37855;53.204;6.568;2022-09-16T12:23:47;16.10;73.50
51801;DHT22;37855;53.204;6.568;2022-09-16T12:26:17;16.10;73.10
51801;DHT22;37855;53.204;6.568;2022-09-16T12:31:47;16.20;71.00
51801;DHT22;37855;53.204;6.568;2022-09-16T12:34:20;16.20;73.30
51801;DHT22;37855;53.204;6.568;2022-09-16T12:37:05;16.20;74.10
51801;DHT22;37855;53.204;6.568;2022-09-16T12:39:32;16.20;73.30
51801;DHT22;37855;53.204;6.568;2022-09-16T12:42:08;16.20;74.50
51801;DHT22;37855;53.204;6.568;2022-09-16T12:45:05;16.20;74.50
51801;DHT22;37855;53.204;6.568;2022-09-16T12:59:12;15.60;83.30
51801;DHT22;37855;53.204;6.568;2022-09-16T13:01:48;15.50;81.70
51801;DHT22;37855;53.204;6.568;2022-09-16T13:04:21;15.40;82.90
51801;DHT22;37855;53.204;6.568;2022-09-16T13:06:52;15.40;84.10
51801;DHT22;37855;53.204;6.568;2022-09-16T13:09:39;15.50;84.60
51801;DHT22;37855;53.204;6.568;2022-09-16T13:12:26;15.40;76.90
51801;DHT22;37855;53.204;6.568;2022-09-16T13:14:54;15.40;81.80
51801;DHT22;37855;53.204;6.568;2022-09-16T13:17:33;15.30;85.40
51801;DHT22;37855;53.204;6.568;2022-09-16T13:20:19;15.10;89.80
51801;DHT22;37855;53.204;6.568;2022-09-16T13:22:56;14.90;93.30
51801;DHT22;37855;53.204;6.568;2022-09-16T13:28:39;14.20;99.90
51801;DHT22;37855;53.204;6.568;2022-09-16T13:38:54;13.60;99.90
51801;DHT22;37855;53.204;6.568;2022-09-16T13:46:49;13.40;99.90
51801;DHT22;37855;53.204;6.568;2022-09-16T13:49:19;13.40;99.90
51801;DHT22;37855;53.204;6.568;2022-09-16T13:51:48;13.30;99.90
51801;DHT22;37855;53.204;6.568;2022-09-16T13:57:13;13.30;99.90
51801;DHT22;37855;53.204;6.568;2022-09-16T14:08:21;13.70;99.90
51801;DHT22;37855;53.204;6.568;2022-09-16T14:13:19;13.90;99.90
51801;DHT22;37855;53.204;6.568;2022-09-16T14:15:52;14.00;99.90
51801;DHT22;37855;53.204;6.568;2022-09-16T14:18:30;14.10;99.90
51801;DHT22;37855;53.204;6.568;2022-09-16T14:21:05;14.10;99.90
51801;DHT22;37855;53.204;6.568;2022-09-16T14:23:32;14.20;99.90
51801;DHT22;37855;53.204;6.568;2022-09-16T14:26:15;14.20;99.90
51801;DHT22;37855;53.204;6.568;2022-09-16T14:28:42;14.40;99.90
51801;DHT22;37855;53.204;6.568;2022-09-16T14:31:13;14.40;99.90
51801;DHT22;37855;53.204;6.568;2022-09-16T14:36:11;14.40;99.90
51801;DHT22;37855;53.204;6.568;2022-09-16T14:38:43;14.40;99.90
51801;DHT22;37855;53.204;6.568;2022-09-16T14:41:11;14.40;99.90
51801;DHT22;37855;53.204;6.568;2022-09-16T14:43:39;14.20;99.90
51801;DHT22;37855;53.204;6.568;2022-09-16T14:46:06;14.20;99.90
51801;DHT22;37855;53.204;6.568;2022-09-16T14:48:36;14.10;99.90
51801;DHT22;37855;53.204;6.568;2022-09-16T14:51:18;14.00;99.90
51801;DHT22;37855;53.204;6.568;2022-09-16T14:53:53;13.90;99.90
51801;DHT22;37855;53.204;6.568;2022-09-16T14:56:21;13.70;99.90
51801;DHT22;37855;53.204;6.568;2022-09-16T14:58:47;13.60;99.90
51801;DHT22;37855;53.204;6.568;2022-09-16T15:01:20;13.50;99.90
51801;DHT22;37855;53.204;6.568;2022-09-16T15:03:59;13.50;99.90
51801;DHT22;37855;53.204;6.568;2022-09-16T15:06:30;13.40;99.90
51801;DHT22;37855;53.204;6.568;2022-09-16T15:09:02;13.40;99.90
51801;DHT22;37855;53.204;6.568;2022-09-16T15:11:32;13.40;99.90
51801;DHT22;37855;53.204;6.568;2022-09-16T15:13:59;13.40;99.90
51801;DHT22;37855;53.204;6.568;2022-09-16T15:16:26;13.50;99.90
51801;DHT22;37855;53.204;6.568;2022-09-16T15:21:29;13.60;99.90
51801;DHT22;37855;53.204;6.568;2022-09-16T15:23:59;13.70;99.90
51801;DHT22;37855;53.204;6.568;2022-09-16T15:26:29;13.60;99.90
51801;DHT22;37855;53.204;6.568;2022-09-16T15:29:01;13.70;99.90
51801;DHT22;37855;53.204;6.568;2022-09-16T15:33:57;13.80;99.90
51801;DHT22;37855;53.204;6.568;2022-09-16T15:36:33;13.80;99.90
51801;DHT22;37855;53.204;6.568;2022-09-16T15:38:59;13.80;99.90
51801;DHT22;37855;53.204;6.568;2022-09-16T15:41:25;13.80;99.90
51801;DHT22;37855;53.204;6.568;2022-09-16T15:43:51;13.90;99.90
51801;DHT22;37855;53.204;6.568;2022-09-16T15:46:21;13.90;99.90
51801;DHT22;37855;53.204;6.568;2022-09-16T15:48:51;13.90;99.90
51801;DHT22;37855;53.204;6.568;2022-09-16T15:51:36;13.90;99.90
51801;DHT22;37855;53.204;6.568;2022-09-16T15:59:37;13.60;99.90
51801;DHT22;37855;53.204;6.568;2022-09-16T16:04:47;13.50;99.90
51801;DHT22;37855;53.204;6.568;2022-09-16T16:10:36;13.40;99.90
51801;DHT22;37855;53.204;6.568;2022-09-16T16:13:04;13.30;99.90
51801;DHT22;37855;53.204;6.568;2022-09-16T16:15:33;13.10;99.90
51801;DHT22;37855;53.204;6.568;2022-09-16T16:18:04;13.00;99.90
51801;DHT22;37855;53.204;6.568;2022-09-16T16:20:35;13.10;99.90
51801;DHT22;37855;53.204;6.568;2022-09-16T16:23:01;13.10;99.90
51801;DHT22;37855;53.204;6.568;2022-09-16T16:25:27;13.10;99.90
51801;DHT22;37855;53.204;6.568;2022-09-16T16:27:53;13.10;99.90
51801;DHT22;37855;53.204;6.568;2022-09-16T16:30:18;13.10;99.90
51801;DHT22;37855;53.204;6.568;2022-09-16T16:32:45;13.10;99.90
51801;DHT22;37855;53.204;6.568;2022-09-16T16:35:11;13.20;99.90
51801;DHT22;37855;53.204;6.568;2022-09-16T16:37:37;13.20;99.90
51801;DHT22;37855;53.204;6.568;2022-09-16T16:40:04;13.30;99.90
51801;DHT22;37855;53.204;6.568;2022-09-16T16:42:30;13.20;99.90
51801;DHT22;37855;53.204;6.568;2022-09-16T16:44:56;13.70;99.90
51801;DHT22;37855;53.204;6.568;2022-09-16T16:47:22;13.30;99.90
51801;DHT22;37855;53.204;6.568;2022-09-16T16:49:48;13.20;99.90
51801;DHT22;37855;53.204;6.568;2022-09-16T16:52:15;13.20;99.90
51801;DHT22;37855;53.204;6.568;2022-09-16T16:54:40;13.20;99.90
51801;DHT22;37855;53.204;6.568;2022-09-16T16:57:08;13.20;99.90
51801;DHT22;37855;53.204;6.568;2022-09-16T16:59:34;13.20;99.90
51801;DHT22;37855;53.204;6.568;2022-09-16T17:01:59;13.20;99.90
51801;DHT22;37855;53.204;6.568;2022-09-16T17:04:25;13.00;99.90
51801;DHT22;37855;53.204;6.568;2022-09-16T17:06:51;13.00;99.90
51801;DHT22;37855;53.204;6.568;2022-09-16T17:09:17;13.00;99.90
51801;DHT22;37855;53.204;6.568;2022-09-16T17:12:00;12.90;99.90
51801;DHT22;37855;53.204;6.568;2022-09-16T17:14:30;12.90;99.90
51801;DHT22;37855;53.204;6.568;2022-09-16T17:16:56;12.90;99.90
51801;DHT22;37855;53.204;6.568;2022-09-16T17:19:24;12.80;99.90
51801;DHT22;37855;53.204;6.568;2022-09-16T17:21:50;12.70;99.90
51801;DHT22;37855;53.204;6.568;2022-09-16T17:24:18;12.70;99.90
51801;DHT22;37855;53.204;6.568;2022-09-16T17:26:44;12.60;99.90
51801;DHT22;37855;53.204;6.568;2022-09-16T17:29:11;12.60;99.90
51801;DHT22;37855;53.204;6.568;2022-09-16T17:31:38;12.60;99.90
51801;DHT22;37855;53.204;6.568;2022-09-16T17:34:07;12.70;99.90
51801;DHT22;37855;53.204;6.568;2022-09-16T17:36:40;12.70;99.90
51801;DHT22;37855;53.204;6.568;2022-09-16T17:39:14;12.70;99.90
51801;DHT22;37855;53.204;6.568;2022-09-16T17:41:43;12.70;99.90
51801;DHT22;37855;53.204;6.568;2022-09-16T17:44:12;12.70;99.90
51801;DHT22;37855;53.204;6.568;2022-09-16T17:46:39;12.80;99.90
51801;DHT22;37855;53.204;6.568;2022-09-16T17:49:07;12.70;99.90
51801;DHT22;37855;53.204;6.568;2022-09-16T17:51:35;12.70;99.90
51801;DHT22;37855;53.204;6.568;2022-09-16T17:54:01;12.70;99.90
51801;DHT22;37855;53.204;6.568;2022-09-16T17:56:28;12.70;99.90
51801;DHT22;37855;53.204;6.568;2022-09-16T17:58:54;13.00;99.90
51801;DHT22;37855;53.204;6.568;2022-09-16T18:01:22;12.70;99.90
51801;DHT22;37855;53.204;6.568;2022-09-16T18:03:49;13.00;99.90
51801;DHT22;37855;53.204;6.568;2022-09-16T18:08:46;12.80;99.90
51801;DHT22;37855;53.204;6.568;2022-09-16T18:11:13;12.80;99.90
51801;DHT22;37855;53.204;6.568;2022-09-16T18:13:40;13.00;99.90
51801;DHT22;37855;53.204;6.568;2022-09-16T18:16:14;12.80;99.90
51801;DHT22;37855;53.204;6.568;2022-09-16T18:18:58;12.70;99.90
51801;DHT22;37855;53.204;6.568;2022-09-16T18:21:26;12.70;99.90
51801;DHT22;37855;53.204;6.568;2022-09-16T18:23:53;12.70;99.90
51801;DHT22;37855;53.204;6.568;2022-09-16T18:26:20;12.60;99.90
51801;DHT22;37855;53.204;6.568;2022-09-16T18:28:47;12.80;99.90
51801;DHT22;37855;53.204;6.568;2022-09-16T18:31:19;12.50;99.90
51801;DHT22;37855;53.204;6.568;2022-09-16T18:33:45;12.60;99.90
51801;DHT22;37855;53.204;6.568;2022-09-16T18:36:12;12.60;99.90
51801;DHT22;37855;53.204;6.568;2022-09-16T18:38:39;12.60;99.90
51801;DHT22;37855;53.204;6.568;2022-09-16T18:41:06;12.60;99.90
51801;DHT22;37855;53.204;6.568;2022-09-16T18:43:34;12.60;99.90
51801;DHT22;37855;53.204;6.568;2022-09-16T18:48:40;12.60;99.90
51801;DHT22;37855;53.204;6.568;2022-09-16T18:53:39;12.60;99.90
51801;DHT22;37855;53.204;6.568;2022-09-16T18:56:05;12.50;99.90
51801;DHT22;37855;53.204;6.568;2022-09-16T18:58:30;12.50;99.90
51801;DHT22;37855;53.204;6.568;2022-09-16T19:01:03;12.50;99.90